sensor_id;sensor_type;location;lat;lon;timestamp;pressure;altitude;pressure_sealevel;temperature;humidity
22572;BME280;11452;53.368;14.658;2023-04-07T00:03:35;101546.53;;;4.79;53.12
22572;BME280;11452;53.368;14.658;2023-04-07T00:08:42;101548.25;;;4.82;53.21
22572;BME280;11452;53.368;14.658;2023-04-07T00:13:47;101541.72;;;4.77;53.45
22572;BME280;11452;53.368;14.658;2023-04-07T00:18:53;101530.89;;;4.66;53.47
22572;BME280;11452;53.368;14.658;2023-04-07T00:23:59;101538.07;;;4.61;53.90
22572;BME280;11452;53.368;14.658;2023-04-07T00:29:04;101533.20;;;4.62;54.05
22572;BME280;11452;53.368;14.658;2023-04-07T00:34:10;101531.91;;;4.60;54.40
22572;BME280;11452;53.368;14.658;2023-04-07T00:39:20;101533.67;;;4.60;54.45
22572;BME280;11452;53.368;14.658;2023-04-07T00:44:26;101532.83;;;4.58;54.75
22572;BME280;11452;53.368;14.658;2023-04-07T00:49:31;101527.51;;;4.59;54.84
22572;BME280;11452;53.368;14.658;2023-04-07T00:54:38;101518.23;;;4.59;55.05
22572;BME280;11452;53.368;14.658;2023-04-07T00:59:44;101520.94;;;4.56;55.13
22572;BME280;11452;53.368;14.658;2023-04-07T01:05:14;101517.90;;;4.53;55.21
22572;BME280;11452;53.368;14.658;2023-04-07T01:11:16;101516.13;;;4.54;55.52
22572;BME280;11452;53.368;14.658;2023-04-07T01:16:01;101517.50;;;4.51;55.50
22572;BME280;11452;53.368;14.658;2023-04-07T01:21:13;101510.14;;;4.44;55.75
22572;BME280;11452;53.368;14.658;2023-04-07T01:26:34;101510.03;;;4.49;56.06
22572;BME280;11452;53.368;14.658;2023-04-07T01:31:38;101508.23;;;4.51;56.15
22572;BME280;11452;53.368;14.658;2023-04-07T01:36:45;101506.97;;;4.48;56.11
22572;BME280;11452;53.368;14.658;2023-04-07T01:41:52;101501.01;;;4.37;56.39
22572;BME280;11452;53.368;14.658;2023-04-07T01:46:59;101503.12;;;4.42;56.67
22572;BME280;11452;53.368;14.658;2023-04-07T01:52:07;101502.26;;;4.41;56.84
22572;BME280;11452;53.368;14.658;2023-04-07T01:57:13;101495.45;;;4.50;57.22
22572;BME280;11452;53.368;14.658;2023-04-07T02:02:19;101487.34;;;4.60;57.37
22572;BME280;11452;53.368;14.658;2023-04-07T02:12:45;101483.20;;;4.67;57.64
22572;BME280;11452;53.368;14.658;2023-04-07T02:17:54;101480.53;;;4.69;58.06
22572;BME280;11452;53.368;14.658;2023-04-07T02:23:00;101476.75;;;4.82;58.14
22572;BME280;11452;53.368;14.658;2023-04-07T02:28:06;101487.59;;;4.91;58.22
22572;BME280;11452;53.368;14.658;2023-04-07T02:33:11;101492.52;;;4.86;57.99
22572;BME280;11452;53.368;14.658;2023-04-07T02:38:18;101483.31;;;4.83;58.28
22572;BME280;11452;53.368;14.658;2023-04-07T02:43:24;101480.36;;;4.78;58.46
22572;BME280;11452;53.368;14.658;2023-04-07T02:48:30;101478.81;;;4.66;58.75
22572;BME280;11452;53.368;14.658;2023-04-07T02:53:35;101477.52;;;4.65;58.51
22572;BME280;11452;53.368;14.658;2023-04-07T02:58:41;101480.56;;;4.67;58.77
22572;BME280;11452;53.368;14.658;2023-04-07T03:03:47;101477.46;;;4.68;58.69
22572;BME280;11452;53.368;14.658;2023-04-07T03:08:58;101472.62;;;4.67;58.67
22572;BME280;11452;53.368;14.658;2023-04-07T03:14:04;101474.59;;;4.58;58.85
22572;BME280;11452;53.368;14.658;2023-04-07T03:19:11;101472.00;;;4.55;58.83
22572;BME280;11452;53.368;14.658;2023-04-07T03:24:19;101468.81;;;4.37;58.69
22572;BME280;11452;53.368;14.658;2023-04-07T03:29:24;101469.76;;;4.33;59.24
22572;BME280;11452;53.368;14.658;2023-04-07T03:34:30;101476.83;;;4.33;59.50
22572;BME280;11452;53.368;14.658;2023-04-07T03:39:35;101471.51;;;4.34;59.67
22572;BME280;11452;53.368;14.658;2023-04-07T03:44:42;101466.41;;;4.25;59.65
22572;BME280;11452;53.368;14.658;2023-04-07T03:49:48;101470.42;;;4.22;59.89
22572;BME280;11452;53.368;14.658;2023-04-07T03:54:56;101460.21;;;4.26;60.17
22572;BME280;11452;53.368;14.658;2023-04-07T04:00:04;101459.97;;;4.14;60.67
22572;BME280;11452;53.368;14.658;2023-04-07T04:05:12;101461.42;;;4.31;61.15
22572;BME280;11452;53.368;14.658;2023-04-07T04:10:19;101456.87;;;4.39;61.22
22572;BME280;11452;53.368;14.658;2023-04-07T04:15:26;101458.20;;;4.39;61.46
22572;BME280;11452;53.368;14.658;2023-04-07T04:20:32;101458.91;;;4.47;61.53
22572;BME280;11452;53.368;14.658;2023-04-07T04:25:39;101465.77;;;4.57;61.76
22572;BME280;11452;53.368;14.658;2023-04-07T04:30:47;101462.90;;;4.45;61.86
22572;BME280;11452;53.368;14.658;2023-04-07T04:35:53;101459.27;;;4.51;62.15
22572;BME280;11452;53.368;14.658;2023-04-07T04:41:00;101466.05;;;4.43;62.30
22572;BME280;11452;53.368;14.658;2023-04-07T04:46:07;101461.09;;;4.47;62.73
22572;BME280;11452;53.368;14.658;2023-04-07T04:51:14;101460.77;;;4.43;62.61
22572;BME280;11452;53.368;14.658;2023-04-07T04:56:21;101460.22;;;4.47;63.15
22572;BME280;11452;53.368;14.658;2023-04-07T05:01:27;101464.51;;;4.54;63.09
22572;BME280;11452;53.368;14.658;2023-04-07T05:06:36;101461.41;;;4.55;63.37
22572;BME280;11452;53.368;14.658;2023-04-07T05:11:43;101460.22;;;4.69;63.63
22572;BME280;11452;53.368;14.658;2023-04-07T05:16:49;101462.70;;;4.78;63.58
22572;BME280;11452;53.368;14.658;2023-04-07T05:21:56;101469.38;;;4.75;63.34
22572;BME280;11452;53.368;14.658;2023-04-07T05:27:03;101468.45;;;4.78;63.93
22572;BME280;11452;53.368;14.658;2023-04-07T05:32:09;101467.99;;;4.78;64.04
22572;BME280;11452;53.368;14.658;2023-04-07T05:37:16;101464.88;;;4.58;63.92
22572;BME280;11452;53.368;14.658;2023-04-07T05:42:22;101464.64;;;4.69;64.50
22572;BME280;11452;53.368;14.658;2023-04-07T05:47:29;101466.39;;;4.70;64.67
22572;BME280;11452;53.368;14.658;2023-04-07T05:52:35;101454.92;;;4.69;64.73
22572;BME280;11452;53.368;14.658;2023-04-07T05:57:43;101458.06;;;4.88;64.72
22572;BME280;11452;53.368;14.658;2023-04-07T06:02:51;101456.34;;;5.06;65.50
22572;BME280;11452;53.368;14.658;2023-04-07T06:07:57;101457.22;;;5.07;65.19
22572;BME280;11452;53.368;14.658;2023-04-07T06:13:03;101456.41;;;5.03;65.49
22572;BME280;11452;53.368;14.658;2023-04-07T06:18:09;101461.68;;;5.43;65.76
22572;BME280;11452;53.368;14.658;2023-04-07T06:23:15;101461.68;;;5.43;65.76
22572;BME280;11452;53.368;14.658;2023-04-07T06:28:20;101469.11;;;5.47;65.67
22572;BME280;11452;53.368;14.658;2023-04-07T06:33:26;101464.72;;;5.46;66.04
22572;BME280;11452;53.368;14.658;2023-04-07T06:38:32;101459.00;;;5.45;66.30
22572;BME280;11452;53.368;14.658;2023-04-07T06:43:38;101463.16;;;5.56;66.42
22572;BME280;11452;53.368;14.658;2023-04-07T06:48:44;101449.30;;;5.44;66.83
22572;BME280;11452;53.368;14.658;2023-04-07T06:53:50;101452.27;;;5.49;67.85
22572;BME280;11452;53.368;14.658;2023-04-07T06:58:56;101452.27;;;5.49;67.85
22572;BME280;11452;53.368;14.658;2023-04-07T07:04:01;101447.39;;;5.68;68.14
22572;BME280;11452;53.368;14.658;2023-04-07T07:09:09;101447.18;;;5.58;67.97
22572;BME280;11452;53.368;14.658;2023-04-07T07:14:15;101451.47;;;5.64;68.67
22572;BME280;11452;53.368;14.658;2023-04-07T07:19:20;101448.05;;;5.76;68.91
22572;BME280;11452;53.368;14.658;2023-04-07T07:24:26;101447.46;;;5.65;69.41
22572;BME280;11452;53.368;14.658;2023-04-07T07:29:32;101448.44;;;5.61;69.87
22572;BME280;11452;53.368;14.658;2023-04-07T07:34:38;101447.53;;;5.62;70.52
22572;BME280;11452;53.368;14.658;2023-04-07T07:39:43;101450.95;;;5.67;70.74
22572;BME280;11452;53.368;14.658;2023-04-07T07:44:49;101453.91;;;5.73;71.32
22572;BME280;11452;53.368;14.658;2023-04-07T07:49:55;101465.00;;;5.90;71.50
22572;BME280;11452;53.368;14.658;2023-04-07T07:55:01;101461.65;;;6.00;71.32
22572;BME280;11452;53.368;14.658;2023-04-07T08:00:08;101466.57;;;5.97;71.67
22572;BME280;11452;53.368;14.658;2023-04-07T08:05:17;101478.44;;;6.00;72.13
22572;BME280;11452;53.368;14.658;2023-04-07T08:10:22;101467.42;;;6.15;72.13
22572;BME280;11452;53.368;14.658;2023-04-07T08:15:28;101472.62;;;6.36;72.22
22572;BME280;11452;53.368;14.658;2023-04-07T08:20:34;101473.45;;;6.22;72.33
22572;BME280;11452;53.368;14.658;2023-04-07T08:25:40;101474.13;;;6.12;72.59
22572;BME280;11452;53.368;14.658;2023-04-07T08:30:45;101479.09;;;6.10;72.97
22572;BME280;11452;53.368;14.658;2023-04-07T08:35:51;101479.02;;;6.29;73.47
22572;BME280;11452;53.368;14.658;2023-04-07T08:41:06;101481.83;;;6.39;73.38
22572;BME280;11452;53.368;14.658;2023-04-07T08:46:05;101485.92;;;6.51;73.25
22572;BME280;11452;53.368;14.658;2023-04-07T08:51:14;101490.67;;;6.40;73.48
22572;BME280;11452;53.368;14.658;2023-04-07T08:56:21;101487.63;;;6.37;74.01
22572;BME280;11452;53.368;14.658;2023-04-07T09:01:29;101486.49;;;6.47;74.01
22572;BME280;11452;53.368;14.658;2023-04-07T09:06:35;101485.20;;;6.46;74.16
22572;BME280;11452;53.368;14.658;2023-04-07T09:11:42;101483.34;;;6.49;74.68
22572;BME280;11452;53.368;14.658;2023-04-07T09:16:48;101480.30;;;6.63;75.00
22572;BME280;11452;53.368;14.658;2023-04-07T09:21:54;101482.28;;;6.55;74.87
22572;BME280;11452;53.368;14.658;2023-04-07T09:27:14;101481.02;;;6.68;75.00
22572;BME280;11452;53.368;14.658;2023-04-07T09:32:37;101477.32;;;6.74;75.21
22572;BME280;11452;53.368;14.658;2023-04-07T09:37:43;101477.53;;;6.82;75.31
22572;BME280;11452;53.368;14.658;2023-04-07T09:42:48;101465.70;;;6.92;75.54
22572;BME280;11452;53.368;14.658;2023-04-07T09:47:54;101469.73;;;7.06;75.25
22572;BME280;11452;53.368;14.658;2023-04-07T09:53:00;101466.77;;;7.02;75.33
22572;BME280;11452;53.368;14.658;2023-04-07T09:58:07;101474.13;;;7.07;75.87
22572;BME280;11452;53.368;14.658;2023-04-07T10:03:14;101471.02;;;7.07;75.83
22572;BME280;11452;53.368;14.658;2023-04-07T10:08:20;101478.11;;;7.07;76.05
22572;BME280;11452;53.368;14.658;2023-04-07T10:13:26;101470.38;;;7.14;76.25
22572;BME280;11452;53.368;14.658;2023-04-07T10:18:34;101477.86;;;7.16;76.36
22572;BME280;11452;53.368;14.658;2023-04-07T10:23:47;101476.81;;;7.21;76.58
22572;BME280;11452;53.368;14.658;2023-04-07T10:28:56;101483.03;;;7.35;77.23
22572;BME280;11452;53.368;14.658;2023-04-07T10:34:01;101486.20;;;7.46;76.87
22572;BME280;11452;53.368;14.658;2023-04-07T10:50:19;101481.52;;;7.41;77.65
22572;BME280;11452;53.368;14.658;2023-04-07T11:00:39;101472.27;;;7.66;77.95
22572;BME280;11452;53.368;14.658;2023-04-07T11:05:44;101472.18;;;7.69;77.72
22572;BME280;11452;53.368;14.658;2023-04-07T11:10:50;101472.18;;;7.69;77.97
22572;BME280;11452;53.368;14.658;2023-04-07T11:15:55;101468.92;;;7.46;77.99
22572;BME280;11452;53.368;14.658;2023-04-07T11:21:01;101472.91;;;7.46;78.16
22572;BME280;11452;53.368;14.658;2023-04-07T11:26:08;101469.38;;;7.60;79.05
22572;BME280;11452;53.368;14.658;2023-04-07T11:31:30;101469.42;;;7.85;79.27
22572;BME280;11452;53.368;14.658;2023-04-07T11:36:40;101463.69;;;8.11;79.19
22572;BME280;11452;53.368;14.658;2023-04-07T11:41:47;101466.71;;;7.87;78.47
22572;BME280;11452;53.368;14.658;2023-04-07T11:46:56;101458.97;;;8.06;78.88
22572;BME280;11452;53.368;14.658;2023-04-07T11:52:06;101454.52;;;7.80;77.66
22572;BME280;11452;53.368;14.658;2023-04-07T11:57:12;101455.31;;;7.96;78.88
22572;BME280;11452;53.368;14.658;2023-04-07T12:02:34;101448.76;;;7.93;78.53
22572;BME280;11452;53.368;14.658;2023-04-07T12:07:51;101453.77;;;7.89;78.88
22572;BME280;11452;53.368;14.658;2023-04-07T12:12:50;101444.09;;;7.87;78.75
22572;BME280;11452;53.368;14.658;2023-04-07T12:17:56;101443.44;;;7.93;78.59
22572;BME280;11452;53.368;14.658;2023-04-07T12:23:02;101437.88;;;7.99;78.37
22572;BME280;11452;53.368;14.658;2023-04-07T12:28:08;101440.13;;;7.98;79.09
22572;BME280;11452;53.368;14.658;2023-04-07T12:33:13;101437.58;;;7.82;78.39
22572;BME280;11452;53.368;14.658;2023-04-07T12:38:19;101445.88;;;7.86;78.96
22572;BME280;11452;53.368;14.658;2023-04-07T12:43:25;101440.02;;;7.77;78.83
22572;BME280;11452;53.368;14.658;2023-04-07T12:48:30;101443.78;;;7.83;79.06
22572;BME280;11452;53.368;14.658;2023-04-07T12:53:36;101442.09;;;7.67;78.96
22572;BME280;11452;53.368;14.658;2023-04-07T12:58:41;101449.70;;;7.64;79.59
22572;BME280;11452;53.368;14.658;2023-04-07T13:03:47;101452.39;;;7.91;79.58
22572;BME280;11452;53.368;14.658;2023-04-07T13:08:53;101455.00;;;7.92;79.91
22572;BME280;11452;53.368;14.658;2023-04-07T13:13:59;101446.44;;;8.09;80.21
22572;BME280;11452;53.368;14.658;2023-04-07T13:19:05;101449.12;;;7.96;79.85
22572;BME280;11452;53.368;14.658;2023-04-07T13:24:12;101444.91;;;7.89;79.70
22572;BME280;11452;53.368;14.658;2023-04-07T13:29:18;101447.81;;;8.08;80.29
22572;BME280;11452;53.368;14.658;2023-04-07T13:34:24;101444.99;;;7.99;80.29
22572;BME280;11452;53.368;14.658;2023-04-07T13:39:31;101444.64;;;8.10;80.12
22572;BME280;11452;53.368;14.658;2023-04-07T13:44:37;101438.57;;;8.18;80.62
22572;BME280;11452;53.368;14.658;2023-04-07T13:49:50;101439.03;;;8.30;80.36
22572;BME280;11452;53.368;14.658;2023-04-07T13:54:50;101435.75;;;8.22;80.32
22572;BME280;11452;53.368;14.658;2023-04-07T13:59:56;101431.50;;;8.30;80.39
22572;BME280;11452;53.368;14.658;2023-04-07T14:05:01;101448.48;;;8.14;80.58
22572;BME280;11452;53.368;14.658;2023-04-07T14:10:07;101436.58;;;8.24;80.80
22572;BME280;11452;53.368;14.658;2023-04-07T14:15:14;101431.84;;;8.34;80.73
22572;BME280;11452;53.368;14.658;2023-04-07T14:20:21;101429.34;;;8.41;80.72
22572;BME280;11452;53.368;14.658;2023-04-07T14:25:28;101426.67;;;8.16;80.51
22572;BME280;11452;53.368;14.658;2023-04-07T14:30:37;101423.52;;;8.30;80.79
22572;BME280;11452;53.368;14.658;2023-04-07T14:35:43;101433.94;;;8.11;80.74
22572;BME280;11452;53.368;14.658;2023-04-07T14:40:54;101429.44;;;8.13;81.18
22572;BME280;11452;53.368;14.658;2023-04-07T14:45:59;101421.05;;;8.12;80.87
22572;BME280;11452;53.368;14.658;2023-04-07T14:51:10;101421.11;;;8.22;81.52
22572;BME280;11452;53.368;14.658;2023-04-07T14:56:16;101424.70;;;8.21;81.34
22572;BME280;11452;53.368;14.658;2023-04-07T15:01:22;101419.51;;;8.43;81.70
22572;BME280;11452;53.368;14.658;2023-04-07T15:06:27;101426.59;;;8.31;80.86
22572;BME280;11452;53.368;14.658;2023-04-07T15:11:33;101432.53;;;8.26;81.37
22572;BME280;11452;53.368;14.658;2023-04-07T15:16:39;101425.05;;;8.37;81.81
22572;BME280;11452;53.368;14.658;2023-04-07T15:21:44;101421.24;;;8.32;81.17
22572;BME280;11452;53.368;14.658;2023-04-07T15:26:50;101419.98;;;8.29;81.54
22572;BME280;11452;53.368;14.658;2023-04-07T15:31:56;101418.23;;;8.42;81.56
22572;BME280;11452;53.368;14.658;2023-04-07T15:37:01;101418.42;;;8.49;81.76
22572;BME280;11452;53.368;14.658;2023-04-07T15:42:08;101423.45;;;8.56;81.53
22572;BME280;11452;53.368;14.658;2023-04-07T15:47:15;101418.80;;;8.38;81.44
22572;BME280;11452;53.368;14.658;2023-04-07T15:52:20;101419.24;;;8.51;81.75
22572;BME280;11452;53.368;14.658;2023-04-07T15:57:26;101414.13;;;8.56;81.73
22572;BME280;11452;53.368;14.658;2023-04-07T16:02:32;101419.72;;;8.37;81.46
22572;BME280;11452;53.368;14.658;2023-04-07T16:07:38;101419.66;;;8.39;81.98
22572;BME280;11452;53.368;14.658;2023-04-07T16:12:50;101423.39;;;8.35;81.84
22572;BME280;11452;53.368;14.658;2023-04-07T16:17:51;101416.55;;;8.26;81.80
22572;BME280;11452;53.368;14.658;2023-04-07T16:22:56;101422.80;;;8.25;82.23
22572;BME280;11452;53.368;14.658;2023-04-07T16:28:02;101424.13;;;8.25;82.13
22572;BME280;11452;53.368;14.658;2023-04-07T16:33:08;101419.57;;;8.28;82.49
22572;BME280;11452;53.368;14.658;2023-04-07T16:38:13;101425.00;;;8.25;82.19
22572;BME280;11452;53.368;14.658;2023-04-07T16:43:19;101436.30;;;8.07;82.28
22572;BME280;11452;53.368;14.658;2023-04-07T16:48:24;101442.28;;;8.00;82.73
22572;BME280;11452;53.368;14.658;2023-04-07T16:53:30;101438.57;;;7.93;83.20
22572;BME280;11452;53.368;14.658;2023-04-07T16:58:35;101442.10;;;7.93;83.45
22572;BME280;11452;53.368;14.658;2023-04-07T17:03:41;101444.86;;;7.90;83.35
22572;BME280;11452;53.368;14.658;2023-04-07T17:08:47;101449.67;;;7.92;83.49
22572;BME280;11452;53.368;14.658;2023-04-07T17:13:52;101449.15;;;7.81;83.83
22572;BME280;11452;53.368;14.658;2023-04-07T17:18:59;101465.33;;;7.88;84.08
22572;BME280;11452;53.368;14.658;2023-04-07T17:24:05;101471.81;;;7.80;83.93
22572;BME280;11452;53.368;14.658;2023-04-07T17:29:12;101477.36;;;7.74;84.10
22572;BME280;11452;53.368;14.658;2023-04-07T17:34:18;101488.51;;;7.72;84.05
22572;BME280;11452;53.368;14.658;2023-04-07T17:39:23;101492.13;;;7.69;84.37
22572;BME280;11452;53.368;14.658;2023-04-07T17:44:29;101492.31;;;7.63;83.92
22572;BME280;11452;53.368;14.658;2023-04-07T17:49:34;101491.12;;;7.60;83.81
22572;BME280;11452;53.368;14.658;2023-04-07T17:54:40;101496.48;;;7.58;84.16
22572;BME280;11452;53.368;14.658;2023-04-07T17:59:47;101496.66;;;7.52;83.72
22572;BME280;11452;53.368;14.658;2023-04-07T18:04:52;101503.77;;;7.52;84.43
22572;BME280;11452;53.368;14.658;2023-04-07T18:10:00;101507.26;;;7.54;84.07
22572;BME280;11452;53.368;14.658;2023-04-07T18:15:07;101500.79;;;7.48;84.55
22572;BME280;11452;53.368;14.658;2023-04-07T18:20:13;101511.75;;;7.52;84.30
22572;BME280;11452;53.368;14.658;2023-04-07T18:25:18;101511.57;;;7.58;84.88
22572;BME280;11452;53.368;14.658;2023-04-07T18:30:24;101519.73;;;7.52;84.54
22572;BME280;11452;53.368;14.658;2023-04-07T18:35:29;101522.30;;;7.55;84.53
22572;BME280;11452;53.368;14.658;2023-04-07T18:40:35;101534.91;;;7.48;84.87
22572;BME280;11452;53.368;14.658;2023-04-07T18:45:40;101533.55;;;7.35;84.60
22572;BME280;11452;53.368;14.658;2023-04-07T18:50:53;101538.99;;;7.30;84.75
22572;BME280;11452;53.368;14.658;2023-04-07T18:55:59;101545.02;;;7.37;85.30
22572;BME280;11452;53.368;14.658;2023-04-07T19:01:05;101544.77;;;7.45;85.28
22572;BME280;11452;53.368;14.658;2023-04-07T19:06:16;101540.77;;;7.45;85.35
22572;BME280;11452;53.368;14.658;2023-04-07T19:11:22;101551.41;;;7.45;85.38
22572;BME280;11452;53.368;14.658;2023-04-07T19:16:28;101552.58;;;7.36;85.24
22572;BME280;11452;53.368;14.658;2023-04-07T19:21:34;101554.32;;;7.37;85.20
22572;BME280;11452;53.368;14.658;2023-04-07T19:26:40;101548.30;;;7.30;85.42
22572;BME280;11452;53.368;14.658;2023-04-07T19:31:46;101549.33;;;7.41;85.86
